Mayport Ns (Adm David L. Mcdonald Field) Airport
KNRB : now visible

Airfield :











YOU CAN JOIN US ON...

 
LOGIN :

Register | Disclaimer

   EN    FR    IT 

 









Legend :    VFR   Marginal VFR   IFR   Intensive IFR   Very Intensive IFR
Visi :
Ceiling :
>= 8 km
>= 3000ft
5 to 8 km
1000 to 3000 ft
1500m to 5 km
500 to 1000 ft
800 to 1500m
200 to 500 ft
< 800m
< 200 ft
Symbols :   Thunderstorms  Fog  Heavy snow  Heavy precipitations  Wind > 20 kt






- Airport Elevation : 15 ft


KNRB - Mayport Ns (Adm David L. Mcdonald Field)

CURRENT METAR :
  • 281752Z 11010KT 10SM SCT040 OVC250 28/23 A3004 RMK AO2 SLP173 FRQ LTG DSNT SW CB DSNT SW T1 SET T02830233 10283 20233 58011

EXPIRED METARs :
  • 281652Z 10008KT 10SM SCT040 OVC250 28/23 A3007 RMK AO2 SLP181 T02780233
  • 281552Z 10010KT 10SM SCT035 BKN250 28/24 A3008 RMK AO2 SLP184 T02830239

TAF TAF KNRB
Valid from the 28 at 15:00 until the 29 at 15:00 UTC


2815/2915 19010KT 9999 VCSH SCT030 BKN250 QNH3003INS
FM281800 14010G20KT 9999 VCTS FEW025 BKN040CB BKN250 QNH2997INS
TEMPO 2819/2823 VRB25G35KT 4000 -TSRA BKN005 OVC010CB
FM290000 22010KT 9999 FEW030 SCT080 BKN250 QNH3000INS
FM290700 19005KT 9999 VCSH SCT015 BKN025 OVC080 QNH3002INS T30/2819Z T22/2911Z FN20022
KZJX FIR / North America



MET'MAP, your aeronautical weather chart ! - Copyright ORBIFLY December 2007 - Disclaimer

ORBIFLY MET'MAP TEAM :

Programming & Development : Alexandra Zaïnal
Concept & original design : Baudouin d'Aumeries
Assistance for programming : Marc-Olivier Méhu
Technical & hardware support : Manuel Goepfert

Contact : metmap@orbifly.com




SOURCES & CREDITS :

   NOAA       Earth
Advisory